KAZO

Kalamazoo / Battle Creek International Airport

Kalamazoo, Michigan, USA
KAZO 171847Z 1719/1818 01004KT P6SM OVC015 FM172100 01004KT P6SM VCSH OVC020 FM181200 04004KT P6SM OVC020 FM181700 VRB03KT P6SM BKN035
Issued Valid From Valid To
Nov-17 @ 18:47 UTC
(3 hours ago)
Nov-17 @ 19:00 UTC
(3 hours ago)
Nov-18 @ 18:00 UTC
(in 20 hours)
Expired Click to View Nov-17 @ 19:00 to Nov-17 @ 21:00
KAZO 171847Z 1719/1818 01004KT P6SM OVC015
Wind Visibility Clouds
10° at 4 knots Greater than 6 miles
  • Overcast at 1,500' AGL
From Nov-17 @ 21:00 to Nov-18 @ 12:00
FM172100 01004KT P6SM VCSH OVC020
Wind Visibility Clouds
10° at 4 knots Greater than 6 miles
  • Overcast at 2,000' AGL
From Nov-18 @ 12:00 to Nov-18 @ 17:00
FM181200 04004KT P6SM OVC020
Wind Visibility Clouds
40° at 4 knots Greater than 6 miles
  • Overcast at 2,000' AGL
From Nov-18 @ 17:00 to Nov-18 @ 18:00
FM181700 VRB03KT P6SM BKN035
Wind Visibility Clouds
Variable at 3 knots Greater than 6 miles
  • Broken at 3,500' AGL
KAZO 171847Z 1719/1818 01004KT P6SM OVC015 FM172100 01004KT P6SM VCSH OVC020 FM181200 04004KT P6SM OVC020 FM181700 VRB03KT P6SM BKN035
Issued Nov-17 @ 18:47 UTC
(3 hours ago)
Valid From Nov-17 @ 19:00 UTC
(3 hours ago)
Valid To Nov-18 @ 18:00 UTC
(in 20 hours)
Nov-17 @ 19:00 - Nov-17 @ 21:00
Wind Visibility
10° at 4 knots Greater than 6 miles
Clouds
  • Overcast at 1,500' AGL
From Nov-17 @ 21:00 - Nov-18 @ 12:00
Wind Visibility
10° at 4 knots Greater than 6 miles
Clouds
  • Overcast at 2,000' AGL
From Nov-18 @ 12:00 - Nov-18 @ 17:00
Wind Visibility
40° at 4 knots Greater than 6 miles
Clouds
  • Overcast at 2,000' AGL
From Nov-18 @ 17:00 - Nov-18 @ 18:00
Wind Visibility
Variable at 3 knots Greater than 6 miles
Clouds
  • Broken at 3,500' AGL